Time;durP1;ratioP1;P1;durP2;ratioP2;P2;SDS_P1;SDS_P2;PMS_P1;PMS_P2;Temp;Humidity;BMP_temperature;BMP_pressure;BME280_temperature;BME280_humidity;BME280_pressure;Samples;Min_cycle;Max_cycle;Signal;HPM_P1;HPM_P2
2024/04/04 00:02:16;;;;;;;8.93;2.23;;;16.90;77.50;;;;;;5027668;28;20026;-76
2024/04/04 00:04:42;;;;;;;7.10;1.80;;;16.90;77.50;;;;;;5021973;28;20049;-77
2024/04/04 00:07:08;;;;;;;7.67;1.33;;;16.90;77.40;;;;;;5028667;28;20056;-76
2024/04/04 00:09:33;;;;;;;5.60;1.60;;;16.80;77.40;;;;;;5021394;28;20029;-76
2024/04/04 00:11:59;;;;;;;5.37;1.20;;;16.80;77.50;;;;;;5026183;28;20049;-76
2024/04/04 00:14:25;;;;;;;5.93;1.17;;;16.80;77.40;;;;;;5022881;28;20018;-77
2024/04/04 00:16:50;;;;;;;6.60;1.67;;;16.80;77.50;;;;;;5023271;28;20515;-75
2024/04/04 00:19:16;;;;;;;8.07;1.73;;;16.80;77.50;;;;;;5026901;28;20435;-76
2024/04/04 00:21:42;;;;;;;6.73;1.73;;;16.80;77.60;;;;;;5025356;28;20099;-76
2024/04/04 00:24:08;;;;;;;6.67;1.40;;;16.80;77.60;;;;;;5018075;28;20034;-77
2024/04/04 00:26:34;;;;;;;7.45;1.52;;;16.80;77.60;;;;;;5026361;28;20033;-77
2024/04/04 00:28:59;;;;;;;4.37;1.73;;;16.80;77.60;;;;;;5022946;28;20037;-76
2024/04/04 00:31:25;;;;;;;5.00;1.60;;;16.70;77.60;;;;;;5026583;28;20518;-75
2024/04/04 00:33:51;;;;;;;5.50;1.57;;;16.70;77.60;;;;;;5021534;28;20036;-77
2024/04/04 00:36:17;;;;;;;6.10;1.65;;;16.70;77.70;;;;;;5028041;28;20053;-77
2024/04/04 00:38:43;;;;;;;3.90;1.33;;;16.70;77.60;;;;;;5021532;28;20068;-76
2024/04/04 00:41:08;;;;;;;6.80;1.40;;;16.70;77.60;;;;;;5024404;28;20484;-76
2024/04/04 00:43:34;;;;;;;3.77;0.90;;;16.70;77.60;;;;;;5028089;28;20037;-77
2024/04/04 00:46:02;;;;;;;3.80;1.52;;;16.70;77.70;;;;;;5020886;28;20033;-76
2024/04/04 00:48:28;;;;;;;5.85;1.55;;;16.70;77.70;;;;;;5020364;28;20544;-76
2024/04/04 00:50:57;;;;;;;5.10;1.37;;;16.70;77.70;;;;;;5027532;28;20030;-76
2024/04/04 00:53:25;;;;;;;6.97;1.52;;;16.70;77.70;;;;;;5027024;28;20021;-76
2024/04/04 00:55:52;;;;;;;6.28;1.23;;;16.70;77.60;;;;;;5026897;28;20032;-76
2024/04/04 00:58:19;;;;;;;6.28;1.50;;;16.60;77.70;;;;;;5029517;28;20026;-76
2024/04/04 01:00:45;;;;;;;3.92;1.45;;;16.60;77.70;;;;;;5026763;28;20524;-76
2024/04/04 01:03:11;;;;;;;3.00;1.00;;;16.60;77.80;;;;;;5022583;28;20033;-77
2024/04/04 01:05:37;;;;;;;7.17;1.60;;;16.60;77.80;;;;;;5017294;28;20037;-76
2024/04/04 01:08:04;;;;;;;4.03;1.10;;;16.60;77.70;;;;;;5024901;28;20025;-76
2024/04/04 01:10:30;;;;;;;6.65;1.35;;;16.60;77.80;;;;;;5026555;28;20034;-76
2024/04/04 01:12:55;;;;;;;5.43;1.30;;;16.60;77.80;;;;;;5027995;28;20021;-76
2024/04/04 01:15:21;;;;;;;7.43;1.97;;;16.50;77.80;;;;;;5016020;28;20025;-76
2024/04/04 01:17:47;;;;;;;4.77;1.50;;;16.50;77.70;;;;;;5028254;28;20041;-76
2024/04/04 01:20:12;;;;;;;3.87;1.03;;;16.50;77.70;;;;;;5026972;28;20151;-76
2024/04/04 01:22:38;;;;;;;4.13;1.10;;;16.50;77.70;;;;;;5018165;28;20037;-77
2024/04/04 01:25:04;;;;;;;4.50;1.23;;;16.50;77.70;;;;;;5026710;28;20041;-76
2024/04/04 01:27:30;;;;;;;5.47;1.15;;;16.50;77.80;;;;;;5021852;28;20033;-76
2024/04/04 01:29:55;;;;;;;5.07;1.53;;;16.50;77.70;;;;;;5027898;28;20060;-77
2024/04/04 01:32:21;;;;;;;7.00;1.43;;;16.50;77.70;;;;;;5021387;28;20065;-77
2024/04/04 01:34:47;;;;;;;4.80;1.20;;;16.50;77.70;;;;;;5028011;28;20025;-76
2024/04/04 01:37:12;;;;;;;4.63;1.20;;;16.50;77.70;;;;;;5026038;28;20451;-76
2024/04/04 01:39:38;;;;;;;6.63;1.40;;;16.50;77.70;;;;;;5016652;28;20029;-76
2024/04/04 01:42:04;;;;;;;3.40;1.10;;;16.50;77.80;;;;;;5019450;28;20465;-78
2024/04/04 01:44:30;;;;;;;3.07;1.17;;;16.50;77.90;;;;;;5026717;28;20029;-76
2024/04/04 01:46:55;;;;;;;5.30;1.13;;;16.50;77.70;;;;;;5020436;28;20180;-76
2024/04/04 01:49:21;;;;;;;4.00;0.90;;;16.40;77.80;;;;;;5026246;28;20455;-76
2024/04/04 01:51:47;;;;;;;6.30;1.10;;;16.40;77.80;;;;;;5025093;28;20022;-76
2024/04/04 01:54:14;;;;;;;6.17;1.33;;;16.40;77.80;;;;;;5027933;28;20050;-76
2024/04/04 01:56:41;;;;;;;6.57;1.27;;;16.40;77.80;;;;;;5025162;28;20116;-76
2024/04/04 01:59:06;;;;;;;2.92;1.05;;;16.40;77.80;;;;;;5026650;28;20037;-76
2024/04/04 02:01:32;;;;;;;7.23;1.60;;;16.40;77.80;;;;;;5021196;28;20034;-75
2024/04/04 02:03:58;;;;;;;3.17;0.90;;;16.40;77.80;;;;;;5024409;28;20740;-76
2024/04/04 02:06:24;;;;;;;4.80;1.23;;;16.40;77.80;;;;;;5024267;28;20037;-76
2024/04/04 02:08:50;;;;;;;4.53;1.10;;;16.40;77.90;;;;;;5017665;28;20463;-76
2024/04/04 02:11:16;;;;;;;3.90;1.00;;;16.40;77.80;;;;;;5020984;28;20056;-76
2024/04/04 02:13:41;;;;;;;2.97;0.93;;;16.40;77.90;;;;;;5018551;28;20133;-76
2024/04/04 02:16:08;;;;;;;2.37;0.90;;;16.40;77.80;;;;;;5021548;28;20275;-76
2024/04/04 02:18:34;;;;;;;;;;;16.40;77.80;;;;;;5024668;28;20046;-77
2024/04/04 02:21:00;;;;;;;2.65;0.98;;;16.40;77.70;;;;;;5023134;28;20269;-76
2024/04/04 02:23:27;;;;;;;5.57;1.27;;;16.40;77.80;;;;;;5023219;28;20031;-76
2024/04/04 02:25:55;;;;;;;4.78;1.15;;;16.30;77.90;;;;;;5019463;28;20661;-77
2024/04/04 02:28:21;;;;;;;2.42;0.80;;;16.30;78.00;;;;;;5025010;28;20028;-76
2024/04/04 02:30:46;;;;;;;1.80;0.90;;;16.30;78.00;;;;;;5021972;28;20037;-76
2024/04/04 02:33:12;;;;;;;5.13;1.23;;;16.30;77.90;;;;;;5022171;28;20029;-76
2024/04/04 02:35:39;;;;;;;1.90;0.80;;;16.30;77.90;;;;;;5026327;28;20092;-76
2024/04/04 02:38:08;;;;;;;2.90;1.17;;;16.30;78.00;;;;;;5026690;28;20368;-77
2024/04/04 02:40:34;;;;;;;3.25;0.88;;;16.30;78.00;;;;;;5022008;28;20025;-76
2024/04/04 02:43:00;;;;;;;2.73;0.77;;;16.30;78.00;;;;;;5027610;28;20481;-76
2024/04/04 02:45:26;;;;;;;3.13;0.93;;;16.30;78.00;;;;;;5021008;28;20434;-77
2024/04/04 02:47:51;;;;;;;3.40;0.80;;;16.30;78.00;;;;;;5023613;28;20281;-76
2024/04/04 02:50:18;;;;;;;3.77;0.80;;;16.30;78.00;;;;;;5021865;28;20059;-76
2024/04/04 02:52:43;;;;;;;2.10;0.75;;;16.30;77.90;;;;;;5024430;28;20040;-76
2024/04/04 02:55:09;;;;;;;3.97;1.00;;;16.30;77.90;;;;;;5025705;28;20113;-76
2024/04/04 02:57:38;;;;;;;4.23;0.80;;;16.20;77.80;;;;;;5018226;28;20088;-76
2024/04/04 03:00:08;;;;;;;2.55;0.93;;;16.20;77.80;;;;;;5029915;28;20069;-76
2024/04/04 03:02:34;;;;;;;2.75;1.00;;;16.20;77.80;;;;;;5026074;28;20121;-76
2024/04/04 03:05:00;;;;;;;2.93;0.87;;;16.20;77.70;;;;;;5024026;28;20128;-76
2024/04/04 03:07:27;;;;;;;2.83;1.00;;;16.30;77.70;;;;;;5021401;28;20021;-77
2024/04/04 03:09:52;;;;;;;5.70;1.20;;;16.20;77.70;;;;;;5023038;28;20038;-76
2024/04/04 03:12:18;;;;;;;3.50;0.97;;;16.20;77.80;;;;;;5032095;28;20033;-76
2024/04/04 03:14:44;;;;;;;5.33;0.90;;;16.20;77.70;;;;;;5024344;28;20025;-76
2024/04/04 03:17:09;;;;;;;6.03;1.07;;;16.20;77.70;;;;;;5022111;28;20026;-76
2024/04/04 03:19:35;;;;;;;2.70;0.60;;;16.20;77.80;;;;;;5023873;28;20095;-76
2024/04/04 03:22:01;;;;;;;5.20;1.37;;;16.20;77.90;;;;;;5025549;28;20092;-77
2024/04/04 03:24:26;;;;;;;3.60;1.10;;;16.20;77.80;;;;;;5030576;28;20100;-76
2024/04/04 03:26:52;;;;;;;3.00;0.90;;;16.20;77.80;;;;;;5025256;28;20041;-77
2024/04/04 03:29:18;;;;;;;4.37;1.03;;;16.20;77.80;;;;;;5023713;28;20036;-77
2024/04/04 03:31:43;;;;;;;3.53;0.83;;;16.20;77.70;;;;;;5021437;28;20072;-76
2024/04/04 03:34:09;;;;;;;1.67;0.70;;;16.20;77.80;;;;;;5025542;28;20030;-76
2024/04/04 03:36:35;;;;;;;2.83;0.90;;;16.20;77.60;;;;;;5024753;28;20082;-77
2024/04/04 03:39:01;;;;;;;3.23;0.70;;;16.20;77.60;;;;;;5019832;28;20029;-77
2024/04/04 03:41:26;;;;;;;4.03;0.87;;;16.10;77.60;;;;;;5031028;28;20113;-76
2024/04/04 03:43:52;;;;;;;4.17;0.93;;;16.20;77.60;;;;;;5024206;28;20535;-76
2024/04/04 03:46:18;;;;;;;2.27;1.10;;;16.10;77.60;;;;;;5018771;28;20034;-77
2024/04/04 03:48:45;;;;;;;4.57;0.87;;;16.20;77.60;;;;;;5015299;28;20022;-76
2024/04/04 03:51:11;;;;;;;3.00;1.00;;;16.10;77.60;;;;;;5022841;28;20021;-77
2024/04/04 03:53:36;;;;;;;2.47;0.82;;;16.10;77.60;;;;;;5030550;28;20411;-76
2024/04/04 03:56:02;;;;;;;2.10;1.00;;;16.10;77.50;;;;;;5023324;28;20172;-76
2024/04/04 03:58:28;;;;;;;1.87;0.80;;;16.10;77.60;;;;;;5019491;28;20391;-76
2024/04/04 04:00:54;;;;;;;3.83;1.23;;;16.10;77.60;;;;;;5025100;28;20026;-76
2024/04/04 04:03:19;;;;;;;4.17;0.80;;;16.10;77.60;;;;;;5030602;28;20017;-76
2024/04/04 04:05:46;;;;;;;2.70;1.07;;;16.10;77.60;;;;;;5022327;28;20034;-76
2024/04/04 04:08:11;;;;;;;3.60;0.85;;;16.10;77.70;;;;;;5020066;28;20771;-76
2024/04/04 04:10:38;;;;;;;3.33;1.10;;;16.10;77.70;;;;;;5024413;28;20033;-76
2024/04/04 04:13:04;;;;;;;1.95;0.80;;;16.10;77.60;;;;;;5028440;28;20065;-76
2024/04/04 04:15:30;;;;;;;1.52;0.90;;;16.10;77.60;;;;;;5027221;28;20033;-76
2024/04/04 04:17:56;;;;;;;2.73;0.90;;;16.10;77.70;;;;;;5023315;28;20038;-76
2024/04/04 04:23:06;;;;;;;2.55;0.80;;;16.10;77.60;;;;;;5021008;28;20072;-76
2024/04/04 04:25:32;;;;;;;1.33;0.90;;;16.10;77.70;;;;;;5027224;28;20050;-76
2024/04/04 04:27:58;;;;;;;2.78;0.90;;;16.10;77.70;;;;;;5019726;28;20026;-76
2024/04/04 04:30:23;;;;;;;2.83;0.70;;;16.00;77.70;;;;;;5027626;28;20585;-76
2024/04/04 04:32:49;;;;;;;3.30;0.70;;;16.10;77.80;;;;;;5017104;28;20070;-76
2024/04/04 04:35:15;;;;;;;2.80;0.80;;;16.00;77.80;;;;;;5023698;28;20108;-76
2024/04/04 04:37:41;;;;;;;2.47;1.03;;;16.10;77.80;;;;;;5026917;28;20025;-76
2024/04/04 04:40:07;;;;;;;1.70;0.80;;;16.00;77.80;;;;;;5026133;28;20018;-76
2024/04/04 04:42:33;;;;;;;1.85;0.88;;;16.00;77.90;;;;;;5028037;28;20476;-76
2024/04/04 04:44:58;;;;;;;3.67;1.23;;;16.00;77.90;;;;;;5025850;28;20034;-77
2024/04/04 04:47:24;;;;;;;1.73;0.60;;;16.00;77.90;;;;;;5017942;28;20112;-76
2024/04/04 04:49:50;;;;;;;4.87;1.17;;;16.00;77.90;;;;;;5024170;28;20037;-77
2024/04/04 04:52:17;;;;;;;2.28;1.02;;;16.00;78.00;;;;;;5029102;28;20340;-76
2024/04/04 04:54:43;;;;;;;2.45;1.00;;;16.00;77.90;;;;;;5021713;28;20037;-76
2024/04/04 04:57:09;;;;;;;3.67;1.00;;;16.00;78.00;;;;;;5013457;28;20034;-77
2024/04/04 04:59:35;;;;;;;2.40;0.80;;;16.00;78.00;;;;;;5017585;28;20095;-76
2024/04/04 05:02:02;;;;;;;1.23;0.43;;;16.00;78.00;;;;;;5027491;28;20667;-76
2024/04/04 05:04:28;;;;;;;2.72;0.98;;;16.00;78.00;;;;;;5029790;28;20018;-76
2024/04/04 05:06:53;;;;;;;1.58;0.60;;;16.00;78.00;;;;;;5025993;28;20512;-77
2024/04/04 05:09:19;;;;;;;2.60;0.90;;;15.90;78.00;;;;;;5019603;28;20022;-77
2024/04/04 05:11:45;;;;;;;2.27;0.70;;;16.00;78.00;;;;;;5019156;28;20040;-77
2024/04/04 05:14:12;;;;;;;3.17;1.13;;;16.00;78.00;;;;;;5023075;28;20064;-76
2024/04/04 05:16:39;;;;;;;1.70;0.85;;;16.00;78.10;;;;;;5021291;28;20061;-75
2024/04/04 05:19:05;;;;;;;3.30;1.00;;;16.00;78.10;;;;;;5025998;28;20426;-76
2024/04/04 05:21:31;;;;;;;1.40;0.77;;;16.00;78.10;;;;;;5028785;28;20030;-76
2024/04/04 05:23:57;;;;;;;3.03;1.03;;;15.90;78.10;;;;;;5029535;28;20051;-76
2024/04/04 05:26:22;;;;;;;1.57;0.90;;;15.90;78.10;;;;;;5021990;28;20057;-76
2024/04/04 05:28:51;;;;;;;2.33;1.00;;;15.90;78.20;;;;;;5020696;28;20065;-76
2024/04/04 05:31:17;;;;;;;2.83;0.98;;;15.90;78.20;;;;;;5027727;28;20070;-76
2024/04/04 05:33:44;;;;;;;4.35;0.95;;;15.90;78.10;;;;;;5021018;28;20033;-77
2024/04/04 05:36:10;;;;;;;2.60;0.80;;;15.90;78.10;;;;;;5027352;28;20030;-77
2024/04/04 05:38:36;;;;;;;2.37;0.83;;;15.90;78.20;;;;;;5026574;28;20045;-76
2024/04/04 05:41:05;;;;;;;1.42;0.70;;;16.00;78.00;;;;;;5019318;28;20541;-75
2024/04/04 05:43:31;;;;;;;6.05;1.00;;;16.00;77.90;;;;;;5025147;28;20025;-77
2024/04/04 05:45:57;;;;;;;2.43;1.13;;;16.00;78.00;;;;;;5020144;28;20044;-76
2024/04/04 05:48:22;;;;;;;34.10;2.23;;;16.00;78.10;;;;;;5019481;28;20466;-77
2024/04/04 05:50:48;;;;;;;8.67;1.20;;;16.00;78.20;;;;;;5019375;28;20151;-76
2024/04/04 05:53:14;;;;;;;30.30;4.03;;;16.00;78.20;;;;;;5023449;28;20030;-77
2024/04/04 05:55:39;;;;;;;7.63;1.03;;;16.10;78.30;;;;;;5018985;28;20109;-76
2024/04/04 05:58:05;;;;;;;5.90;1.10;;;16.00;78.10;;;;;;5017014;28;20049;-76
2024/04/04 06:00:31;;;;;;;4.37;1.13;;;16.00;78.30;;;;;;5015816;28;20053;-76
2024/04/04 06:02:56;;;;;;;9.63;1.67;;;16.00;78.40;;;;;;5019650;28;20549;-76
2024/04/04 06:05:22;;;;;;;6.67;2.27;;;16.00;78.40;;;;;;5015759;28;20049;-76
2024/04/04 06:07:48;;;;;;;11.57;2.43;;;16.00;78.10;;;;;;5030907;28;21723;-76
2024/04/04 06:10:14;;;;;;;51.33;29.60;;;16.00;78.10;;;;;;5023746;28;20029;-76
2024/04/04 06:12:40;;;;;;;29.10;18.02;;;16.00;77.90;;;;;;5028331;28;20090;-75
2024/04/04 06:15:06;;;;;;;33.30;17.73;;;16.00;77.70;;;;;;5021335;28;20033;-75
2024/04/04 06:17:32;;;;;;;17.38;8.68;;;16.00;77.70;;;;;;5020380;28;20029;-76
2024/04/04 06:19:58;;;;;;;12.03;8.20;;;16.00;77.60;;;;;;5029309;28;20040;-75
2024/04/04 06:22:24;;;;;;;11.70;6.53;;;16.00;77.50;;;;;;5027934;28;20103;-75
2024/04/04 06:24:49;;;;;;;104.83;88.57;;;16.00;77.60;;;;;;5023324;28;20362;-75
2024/04/04 06:27:15;;;;;;;27.17;22.43;;;16.10;78.00;;;;;;5032426;28;20025;-75
2024/04/04 06:29:41;;;;;;;23.07;14.67;;;16.10;78.10;;;;;;5032110;28;20432;-75
2024/04/04 06:32:07;;;;;;;155.43;99.03;;;16.10;77.80;;;;;;5025086;28;20020;-74
2024/04/04 06:34:34;;;;;;;35.80;22.83;;;16.10;78.00;;;;;;5023372;28;20033;-74
2024/04/04 06:37:00;;;;;;;25.83;16.98;;;16.10;77.90;;;;;;5015222;28;20763;-76
2024/04/04 06:39:26;;;;;;;31.05;16.20;;;16.10;77.90;;;;;;5029207;28;20527;-75
2024/04/04 06:41:52;;;;;;;25.75;17.92;;;16.20;77.80;;;;;;5021461;28;20064;-76
2024/04/04 06:44:17;;;;;;;19.77;15.17;;;16.20;77.70;;;;;;5018134;28;20136;-75
2024/04/04 06:46:43;;;;;;;27.77;14.60;;;16.20;77.90;;;;;;5028512;28;20057;-75
2024/04/04 06:49:09;;;;;;;20.10;13.73;;;16.20;77.90;;;;;;5029853;28;20033;-75
2024/04/04 06:51:35;;;;;;;16.02;13.82;;;16.30;78.00;;;;;;5022424;28;20026;-75
2024/04/04 06:54:01;;;;;;;20.20;12.43;;;16.30;77.90;;;;;;5024315;28;20041;-77
2024/04/04 06:56:26;;;;;;;23.70;12.23;;;16.30;78.00;;;;;;5026406;28;20030;-75
2024/04/04 06:58:52;;;;;;;21.57;11.83;;;16.20;78.00;;;;;;5023037;28;20029;-76
2024/04/04 07:01:18;;;;;;;45.40;24.63;;;16.30;78.10;;;;;;5018990;28;20462;-76
2024/04/04 07:03:43;;;;;;;48.23;34.60;;;16.30;78.40;;;;;;5021089;28;20030;-75
2024/04/04 07:06:09;;;;;;;27.87;18.33;;;16.30;78.40;;;;;;5028986;28;20038;-76
2024/04/04 07:08:38;;;;;;;23.00;17.00;;;16.30;78.50;;;;;;5028001;28;20518;-75
2024/04/04 07:11:05;;;;;;;26.70;16.17;;;16.30;78.60;;;;;;5029959;28;20033;-75
2024/04/04 07:13:35;;;;;;;25.70;15.63;;;16.40;78.70;;;;;;5031925;28;20032;-76
2024/04/04 07:16:07;;;;;;;18.88;13.70;;;16.40;78.70;;;;;;5021392;28;20280;-76
2024/04/04 07:18:33;;;;;;;21.95;14.05;;;16.40;78.80;;;;;;5029700;28;20399;-76
2024/04/04 07:21:00;;;;;;;18.27;13.87;;;16.50;78.70;;;;;;5023659;28;20083;-76
2024/04/04 07:23:26;;;;;;;24.08;13.32;;;16.50;78.50;;;;;;5031611;28;20017;-77
2024/04/04 07:25:52;;;;;;;17.30;12.20;;;16.50;78.60;;;;;;5022251;28;20029;-76
2024/04/04 07:28:44;;;;;;;20.17;12.80;;;16.50;78.70;;;;;;5028312;28;20026;-75
2024/04/04 07:31:09;;;;;;;79.20;56.03;;;16.50;78.80;;;;;;5028126;28;20123;-75
2024/04/04 07:33:35;;;;;;;40.03;25.37;;;16.50;79.00;;;;;;5017072;28;20065;-76
2024/04/04 07:36:01;;;;;;;34.73;24.37;;;16.50;78.90;;;;;;5024068;28;20021;-76
2024/04/04 07:38:26;;;;;;;34.57;21.40;;;16.50;79.10;;;;;;5024718;28;20022;-76
2024/04/04 07:40:52;;;;;;;27.87;20.17;;;16.60;79.40;;;;;;5029995;28;20037;-76
2024/04/04 07:43:20;;;;;;;30.20;20.33;;;16.60;79.30;;;;;;5019159;28;20025;-75
2024/04/04 07:45:46;;;;;;;24.02;17.83;;;16.60;79.10;;;;;;5027670;28;20044;-76
2024/04/04 07:48:17;;;;;;;24.60;17.17;;;16.60;79.20;;;;;;5017539;28;20030;-76
2024/04/04 07:50:45;;;;;;;24.00;15.75;;;16.60;79.40;;;;;;5019251;28;20403;-76
2024/04/04 07:53:11;;;;;;;22.20;15.00;;;16.60;79.60;;;;;;5028814;28;20025;-77
2024/04/04 07:55:37;;;;;;;23.27;14.43;;;16.60;79.50;;;;;;5030137;28;20076;-76
2024/04/04 07:58:03;;;;;;;21.00;13.63;;;16.60;79.60;;;;;;5022028;28;20038;-76
2024/04/04 08:00:29;;;;;;;24.03;13.93;;;16.60;79.60;;;;;;5029622;28;20140;-76
2024/04/04 08:02:55;;;;;;;22.90;13.45;;;16.60;79.60;;;;;;5028892;28;20306;-77
2024/04/04 08:05:21;;;;;;;18.83;13.52;;;16.60;79.80;;;;;;5028457;28;20128;-75
2024/04/04 08:07:47;;;;;;;16.05;12.38;;;16.60;79.80;;;;;;5024665;28;20029;-76
2024/04/04 08:10:15;;;;;;;16.83;12.60;;;16.70;79.80;;;;;;5024824;28;20084;-77
2024/04/04 08:12:43;;;;;;;14.43;11.27;;;16.70;79.70;;;;;;5029826;28;20025;-75
2024/04/04 08:15:15;;;;;;;15.60;10.90;;;16.70;79.70;;;;;;5028964;28;20048;-77
2024/04/04 08:17:41;;;;;;;16.38;11.65;;;16.80;79.30;;;;;;5019649;28;20152;-77
2024/04/04 08:20:14;;;;;;;16.73;10.40;;;16.80;79.30;;;;;;5019108;28;20029;-75
2024/04/04 08:22:43;;;;;;;14.82;11.30;;;16.80;79.10;;;;;;5024073;28;20043;-76
2024/04/04 08:25:10;;;;;;;17.75;10.48;;;16.90;79.10;;;;;;5029676;28;20022;-76
2024/04/04 08:27:36;;;;;;;15.32;9.77;;;16.90;78.90;;;;;;5025141;28;20018;-76
2024/04/04 08:30:02;;;;;;;13.25;9.30;;;16.90;79.00;;;;;;5021101;28;20029;-75
2024/04/04 08:32:28;;;;;;;13.07;9.95;;;16.90;79.00;;;;;;5028371;28;20041;-76
2024/04/04 08:34:54;;;;;;;12.45;8.93;;;16.90;78.90;;;;;;5030307;28;20125;-76
2024/04/04 08:37:19;;;;;;;14.67;8.90;;;16.90;78.90;;;;;;5022559;28;20092;-76
2024/04/04 08:39:45;;;;;;;17.90;8.97;;;16.90;78.80;;;;;;5028550;28;20415;-77
2024/04/04 08:42:11;;;;;;;12.33;9.00;;;17.00;78.60;;;;;;5027049;28;20037;-76
2024/04/04 08:44:40;;;;;;;13.23;9.10;;;17.00;78.50;;;;;;5025104;28;20017;-77
2024/04/04 08:47:09;;;;;;;9.50;8.13;;;17.10;78.40;;;;;;5022607;28;20040;-77
2024/04/04 08:49:38;;;;;;;10.35;7.85;;;17.10;78.50;;;;;;5024807;28;20117;-77
2024/04/04 08:52:04;;;;;;;13.90;7.65;;;17.10;78.60;;;;;;5025283;28;20045;-76
2024/04/04 08:54:31;;;;;;;12.68;7.55;;;17.10;78.60;;;;;;5028361;28;20104;-76
2024/04/04 08:56:59;;;;;;;16.05;12.50;;;17.20;78.60;;;;;;5027423;28;20064;-76
2024/04/04 08:59:24;;;;;;;12.63;7.72;;;17.20;78.40;;;;;;5022600;28;20121;-76
2024/04/04 09:01:51;;;;;;;17.50;7.70;;;17.20;78.30;;;;;;5022825;28;20108;-76
2024/04/04 09:04:30;;;;;;;11.93;8.13;;;17.30;78.30;;;;;;5027172;28;20029;-77
2024/04/04 09:06:56;;;;;;;11.73;7.40;;;17.30;78.30;;;;;;5027754;28;20044;-77
2024/04/04 09:09:23;;;;;;;11.40;7.85;;;17.30;78.70;;;;;;5021520;28;20495;-77
2024/04/04 09:11:49;;;;;;;9.82;7.45;;;17.30;79.00;;;;;;5024775;28;20052;-77
2024/04/04 09:14:15;;;;;;;10.63;7.25;;;17.30;79.10;;;;;;5028046;28;20022;-77
2024/04/04 09:16:42;;;;;;;9.17;7.13;;;17.40;79.30;;;;;;5030010;28;20103;-77
2024/04/04 09:19:13;;;;;;;11.60;6.88;;;17.40;79.40;;;;;;5022893;28;20065;-77
2024/04/04 09:21:40;;;;;;;16.52;7.32;;;17.40;79.60;;;;;;5027789;28;20775;-76
2024/04/04 09:24:10;;;;;;;11.93;7.13;;;17.50;79.60;;;;;;5022183;28;20040;-77
2024/04/04 09:26:36;;;;;;;7.90;6.25;;;17.60;79.50;;;;;;5022133;28;20030;-77
2024/04/04 09:29:04;;;;;;;9.63;6.60;;;17.60;79.30;;;;;;5021439;28;20094;-77
2024/04/04 09:31:33;;;;;;;9.25;6.22;;;17.80;79.60;;;;;;5019851;28;20034;-76
2024/04/04 09:33:59;;;;;;;9.23;5.93;;;17.90;79.00;;;;;;5022259;28;20113;-79
2024/04/04 09:36:27;;;;;;;11.68;6.10;;;17.90;78.90;;;;;;5028471;28;20112;-77
2024/04/04 09:38:54;;;;;;;10.02;5.47;;;18.00;78.90;;;;;;5027502;28;20459;-78
2024/04/04 09:41:20;;;;;;;32.92;14.52;;;18.20;78.20;;;;;;5021260;28;20459;-77
2024/04/04 09:43:46;;;;;;;;;;;19.10;74.40;;;;;;5013978;28;20026;-76
2024/04/04 09:46:16;;;;;;;15.40;8.05;;;18.70;75.40;;;;;;5026497;28;19921;-77
2024/04/04 09:48:45;;;;;;;21.05;9.65;;;18.50;76.20;;;;;;5018650;28;20143;-77
2024/04/04 09:51:11;;;;;;;14.10;8.20;;;18.30;76.80;;;;;;5024318;28;20101;-76
2024/04/04 09:53:38;;;;;;;20.30;8.40;;;18.30;76.90;;;;;;5027971;28;20029;-76
2024/04/04 09:56:05;;;;;;;16.48;7.95;;;18.50;76.40;;;;;;5017918;28;20037;-77
2024/04/04 09:58:35;;;;;;;13.32;7.05;;;19.00;74.90;;;;;;5021342;28;20030;-77
2024/04/04 10:01:20;;;;;;;16.55;6.97;;;19.50;72.90;;;;;;5019321;28;20618;-76
2024/04/04 10:03:59;;;;;;;10.88;5.43;;;19.60;72.10;;;;;;5022875;28;20044;-76
2024/04/04 10:06:41;;;;;;;11.02;6.03;;;19.40;72.90;;;;;;5022194;28;20033;-77
2024/04/04 10:09:21;;;;;;;11.13;5.35;;;19.10;73.90;;;;;;5014382;28;20054;-77
2024/04/04 10:11:47;;;;;;;9.27;5.70;;;18.90;74.70;;;;;;5018983;28;20049;-76
2024/04/04 10:14:19;;;;;;;9.00;5.70;;;18.90;74.80;;;;;;5033506;28;20053;-77
2024/04/04 10:16:47;;;;;;;13.23;5.63;;;18.80;75.10;;;;;;5028992;28;20033;-76
2024/04/04 10:19:18;;;;;;;16.40;5.32;;;18.80;75.40;;;;;;5021464;28;20872;-77
2024/04/04 10:21:44;;;;;;;9.18;5.05;;;18.80;75.10;;;;;;5021666;28;20030;-76
2024/04/04 10:24:18;;;;;;;;;;;18.70;75.50;;;;;;5033023;28;20018;-76
2024/04/04 10:26:57;;;;;;;15.77;5.32;;;18.60;75.90;;;;;;5025749;28;19924;-77
2024/04/04 10:29:24;;;;;;;10.73;5.53;;;18.70;75.80;;;;;;5032787;28;20099;-76
2024/04/04 10:31:52;;;;;;;7.60;4.07;;;19.20;74.30;;;;;;5017216;28;20022;-75
2024/04/04 10:34:18;;;;;;;8.75;4.63;;;19.50;72.60;;;;;;5031620;28;20033;-76
2024/04/04 10:36:45;;;;;;;9.83;4.30;;;19.80;71.80;;;;;;5026997;28;20133;-77
2024/04/04 10:39:18;;;;;;;6.13;3.53;;;19.80;71.40;;;;;;5027466;28;20024;-76
2024/04/04 10:41:45;;;;;;;8.43;4.60;;;20.00;70.90;;;;;;5023433;28;20044;-76
2024/04/04 10:44:16;;;;;;;8.20;3.72;;;20.10;70.50;;;;;;5033226;28;20021;-77
2024/04/04 10:46:55;;;;;;;6.95;3.60;;;20.20;70.10;;;;;;5031172;28;20254;-75
2024/04/04 10:49:27;;;;;;;9.85;3.72;;;20.20;70.00;;;;;;5022590;28;20021;-75
2024/04/04 10:52:00;;;;;;;7.15;3.15;;;19.90;71.10;;;;;;5025264;28;20044;-77
2024/04/04 10:54:28;;;;;;;7.53;3.20;;;19.70;72.40;;;;;;5024082;28;20434;-76
2024/04/04 10:56:54;;;;;;;7.20;3.00;;;19.60;72.80;;;;;;5025196;28;20033;-77
2024/04/04 10:59:20;;;;;;;5.57;2.75;;;19.50;73.10;;;;;;5024583;28;20018;-77
2024/04/04 11:01:51;;;;;;;7.25;2.90;;;19.70;72.50;;;;;;5026215;28;20034;-76
2024/04/04 11:04:21;;;;;;;14.15;4.30;;;20.20;70.80;;;;;;5027772;28;20075;-76
2024/04/04 11:06:48;;;;;;;45.35;13.40;;;21.00;68.30;;;;;;5024433;28;20048;-77
2024/04/04 11:09:15;;;;;;;29.10;9.88;;;20.90;68.40;;;;;;5022496;28;20360;-76
2024/04/04 11:11:50;;;;;;;37.60;11.15;;;20.60;69.30;;;;;;5018090;28;20375;-77
2024/04/04 11:14:18;;;;;;;30.65;10.65;;;20.20;71.00;;;;;;5017381;28;20045;-76
2024/04/04 11:16:44;;;;;;;49.08;12.98;;;20.00;72.30;;;;;;5024734;28;20040;-77
2024/04/04 11:19:10;;;;;;;39.72;11.93;;;19.80;72.90;;;;;;5025877;28;20045;-76
2024/04/04 11:21:38;;;;;;;41.65;11.68;;;19.90;72.70;;;;;;5021518;28;20021;-76
2024/04/04 11:24:04;;;;;;;37.65;12.25;;;20.20;71.30;;;;;;5019225;28;20018;-76
2024/04/04 11:26:30;;;;;;;34.67;10.75;;;20.60;69.60;;;;;;5019824;28;20030;-76
2024/04/04 11:29:00;;;;;;;36.20;11.27;;;20.70;69.10;;;;;;5026346;28;20029;-74
2024/04/04 11:31:27;;;;;;;33.50;11.52;;;20.40;70.20;;;;;;5029118;28;20441;-75
2024/04/04 11:33:53;;;;;;;41.03;11.18;;;20.10;71.10;;;;;;5030666;28;20038;-77
2024/04/04 11:36:19;;;;;;;37.20;11.30;;;20.10;71.10;;;;;;5027728;28;20604;-77
2024/04/04 11:38:45;;;;;;;34.60;9.80;;;20.00;71.60;;;;;;5032587;28;20017;-76
2024/04/04 11:41:10;;;;;;;35.87;11.50;;;20.00;71.80;;;;;;5030724;28;20037;-76
2024/04/04 11:43:37;;;;;;;27.43;9.47;;;20.10;71.30;;;;;;5029860;28;20017;-76
2024/04/04 11:46:05;;;;;;;29.38;10.00;;;20.20;70.70;;;;;;5021472;28;20072;-76
2024/04/04 11:48:31;;;;;;;30.05;9.00;;;20.20;70.70;;;;;;5029562;28;20028;-75
2024/04/04 11:50:57;;;;;;;31.97;8.50;;;20.10;71.00;;;;;;5026423;28;20026;-76
2024/04/04 11:53:22;;;;;;;22.63;8.50;;;20.00;71.30;;;;;;5024514;28;20041;-77
2024/04/04 11:55:49;;;;;;;29.20;8.17;;;20.00;71.30;;;;;;5024654;28;20030;-77
2024/04/04 11:58:14;;;;;;;19.70;7.07;;;20.10;71.00;;;;;;5020512;28;20052;-76
2024/04/04 12:00:40;;;;;;;22.30;8.13;;;20.10;70.70;;;;;;5023217;28;20038;-75
2024/04/04 12:03:06;;;;;;;17.92;6.38;;;20.10;70.60;;;;;;5028604;28;20454;-77
2024/04/04 12:05:33;;;;;;;21.63;7.33;;;20.00;71.00;;;;;;5025483;28;20052;-74
2024/04/04 12:07:59;;;;;;;23.17;6.47;;;20.00;71.20;;;;;;5028512;28;20032;-74
2024/04/04 12:10:25;;;;;;;20.65;7.35;;;20.00;71.20;;;;;;5016803;28;20378;-75
2024/04/04 12:12:53;;;;;;;25.23;9.63;;;20.10;70.70;;;;;;5028257;28;20026;-75
2024/04/04 12:15:19;;;;;;;17.77;6.25;;;20.20;70.50;;;;;;5027856;28;20029;-75
2024/04/04 12:17:47;;;;;;;25.63;6.55;;;20.20;70.30;;;;;;5020954;28;20022;-76
2024/04/04 12:20:22;;;;;;;17.48;5.60;;;20.20;70.20;;;;;;5030165;28;20371;-76
2024/04/04 12:22:48;;;;;;;20.90;5.95;;;20.20;70.30;;;;;;5027704;28;20025;-76
2024/04/04 12:25:15;;;;;;;14.45;5.28;;;20.10;70.40;;;;;;5030491;28;20171;-74
2024/04/04 12:27:44;;;;;;;15.30;5.35;;;20.00;70.80;;;;;;5021951;28;20059;-75
2024/04/04 12:30:11;;;;;;;16.08;5.10;;;19.90;71.00;;;;;;5024635;28;20081;-76
2024/04/04 12:32:37;;;;;;;16.90;4.97;;;20.00;70.70;;;;;;5012496;28;20719;-78
2024/04/04 12:35:03;;;;;;;18.13;5.07;;;20.10;70.40;;;;;;5021230;28;20137;-76
2024/04/04 12:37:28;;;;;;;18.90;5.87;;;20.20;69.90;;;;;;5029218;28;20034;-76
2024/04/04 12:39:54;;;;;;;15.63;4.60;;;20.20;69.80;;;;;;5027611;28;20099;-76
2024/04/04 12:42:20;;;;;;;13.57;5.10;;;20.20;69.90;;;;;;5022711;28;20034;-78